createdAt,value
2018-08-16T00:02:25.493Z,6.80
2018-08-16T00:04:54.508Z,6.33
2018-08-16T00:07:23.111Z,6.20
2018-08-16T00:09:51.748Z,6.77
2018-08-16T00:12:20.649Z,7.03
2018-08-16T00:14:49.247Z,7.00
2018-08-16T00:17:17.876Z,6.83
2018-08-16T00:19:46.484Z,7.00
2018-08-16T00:22:15.072Z,7.30
2018-08-16T00:24:43.705Z,6.90
2018-08-16T00:27:12.650Z,6.97
2018-08-16T00:29:41.232Z,6.20
2018-08-16T00:32:09.820Z,6.90
2018-08-16T00:34:38.421Z,6.50
2018-08-16T00:37:07.107Z,7.00
2018-08-16T00:39:35.725Z,6.70
2018-08-16T00:42:04.344Z,6.77
2018-08-16T00:44:32.942Z,6.23
2018-08-16T00:47:01.525Z,6.80
2018-08-16T00:49:30.459Z,6.80
2018-08-16T00:51:59.041Z,6.77
2018-08-16T00:54:27.907Z,6.80
2018-08-16T00:56:56.521Z,7.17
2018-08-16T00:59:25.167Z,7.23
2018-08-16T01:01:53.788Z,5.90
2018-08-16T01:04:22.382Z,5.90
2018-08-16T01:06:50.958Z,5.97
2018-08-16T01:09:19.566Z,6.20
2018-08-16T01:11:48.189Z,6.83
2018-08-16T01:14:17.106Z,7.00
2018-08-16T01:16:45.717Z,7.43
2018-08-16T01:19:14.716Z,7.87
2018-08-16T01:21:43.336Z,8.40
2018-08-16T01:24:11.941Z,8.40
2018-08-16T01:26:40.607Z,9.17
2018-08-16T01:29:09.228Z,9.13
2018-08-16T01:31:37.816Z,8.13
2018-08-16T01:34:06.773Z,9.43
2018-08-16T01:36:35.400Z,9.20
2018-08-16T01:39:04.753Z,9.30
2018-08-16T01:41:33.361Z,9.40
2018-08-16T01:44:01.933Z,8.97
2018-08-16T01:46:30.674Z,10.17
2018-08-16T01:48:59.280Z,9.40
2018-08-16T01:51:27.989Z,10.10
2018-08-16T01:53:56.591Z,9.67
2018-08-16T01:56:25.181Z,9.07
2018-08-16T01:58:53.765Z,9.27
2018-08-16T02:01:22.448Z,9.80
2018-08-16T02:03:51.092Z,9.50
2018-08-16T02:06:19.730Z,9.27
2018-08-16T02:08:48.324Z,9.43
2018-08-16T02:11:16.912Z,9.60
2018-08-16T02:13:45.503Z,9.33
2018-08-16T02:16:14.132Z,9.60
2018-08-16T02:18:42.740Z,9.37
2018-08-16T02:21:11.365Z,10.23
2018-08-16T02:23:39.952Z,9.13
2018-08-16T02:26:08.534Z,7.67
2018-08-16T02:28:37.195Z,8.60
2018-08-16T02:31:05.790Z,8.40
2018-08-16T02:33:34.401Z,8.50
2018-08-16T02:36:03.197Z,7.90
2018-08-16T02:38:31.793Z,8.63
2018-08-16T02:41:00.441Z,8.07
2018-08-16T02:43:29.082Z,9.20
2018-08-16T02:45:58.492Z,8.70
2018-08-16T02:48:27.089Z,8.53
2018-08-16T02:50:55.785Z,8.87
2018-08-16T02:53:24.506Z,9.73
2018-08-16T02:55:53.109Z,9.40
2018-08-16T02:58:21.725Z,9.93
2018-08-16T03:00:50.344Z,10.77
2018-08-16T03:03:18.940Z,10.77
2018-08-16T03:05:47.611Z,10.27
2018-08-16T03:08:16.209Z,9.37
2018-08-16T03:10:44.791Z,9.77
2018-08-16T03:13:13.732Z,10.20
2018-08-16T03:15:42.417Z,10.27
2018-08-16T03:18:11.198Z,9.53
2018-08-16T03:20:39.777Z,9.97
2018-08-16T03:23:08.641Z,9.40
2018-08-16T03:25:37.264Z,9.47
2018-08-16T03:28:06.006Z,9.53
2018-08-16T03:30:34.668Z,9.47
2018-08-16T03:33:03.312Z,9.13
2018-08-16T03:35:31.896Z,8.60
2018-08-16T03:38:00.505Z,8.67
2018-08-16T03:40:29.284Z,8.67
2018-08-16T03:42:57.908Z,8.87
2018-08-16T03:45:26.550Z,8.90
2018-08-16T03:47:55.156Z,8.63
2018-08-16T03:50:23.764Z,8.97
2018-08-16T03:52:52.378Z,9.03
2018-08-16T03:55:21.017Z,8.47
2018-08-16T03:57:49.656Z,8.23
2018-08-16T04:00:18.264Z,7.80
2018-08-16T04:02:46.980Z,8.37
2018-08-16T04:05:15.600Z,7.63
2018-08-16T04:07:44.224Z,7.77
2018-08-16T04:10:12.833Z,7.80
2018-08-16T04:12:41.418Z,7.37
2018-08-16T04:15:10.021Z,7.47
2018-08-16T04:17:38.585Z,6.87
2018-08-16T04:20:08.020Z,7.07
2018-08-16T04:22:36.714Z,7.37
2018-08-16T04:25:05.770Z,7.40
2018-08-16T04:27:34.399Z,7.20
2018-08-16T04:30:02.988Z,7.40
2018-08-16T04:32:31.685Z,6.97
2018-08-16T04:35:00.369Z,7.20
2018-08-16T04:37:29.190Z,7.00
2018-08-16T04:39:57.809Z,7.00
2018-08-16T04:42:26.396Z,6.77
2018-08-16T04:44:55.015Z,6.50
2018-08-16T04:47:23.620Z,6.50
2018-08-16T04:49:52.212Z,5.77
2018-08-16T04:52:20.857Z,6.27
2018-08-16T04:54:49.444Z,6.63
2018-08-16T04:57:18.093Z,5.30
2018-08-16T04:59:46.697Z,5.60
2018-08-16T05:02:15.383Z,5.67
2018-08-16T05:04:45.625Z,5.60
2018-08-16T05:07:14.231Z,5.53
2018-08-16T05:09:42.868Z,6.97
2018-08-16T05:12:11.516Z,7.23
2018-08-16T05:14:40.375Z,6.90
2018-08-16T05:17:09.084Z,5.40
2018-08-16T05:19:37.700Z,5.17
2018-08-16T05:22:06.419Z,5.57
2018-08-16T05:24:35.048Z,4.53
2018-08-16T05:27:03.625Z,4.53
2018-08-16T05:29:32.206Z,4.90
2018-08-16T05:32:00.821Z,4.73
2018-08-16T05:34:29.828Z,4.50
2018-08-16T05:36:58.451Z,3.77
2018-08-16T05:39:27.052Z,4.43
2018-08-16T05:41:56.213Z,4.25
2018-08-16T05:44:25.429Z,3.72
2018-08-16T05:46:54.707Z,3.58
2018-08-16T05:49:23.897Z,4.00
2018-08-16T05:51:53.079Z,3.62
2018-08-16T05:54:22.266Z,3.45
2018-08-16T05:56:51.458Z,3.35
2018-08-16T05:59:20.743Z,3.10
2018-08-16T06:01:50.066Z,3.70
2018-08-16T06:04:19.388Z,3.50
2018-08-16T06:06:48.625Z,3.52
2018-08-16T06:09:17.834Z,4.67
2018-08-16T06:11:47.240Z,4.30
2018-08-16T06:14:16.441Z,3.67
2018-08-16T06:16:45.398Z,3.50
2018-08-16T06:19:14.321Z,3.20
2018-08-16T06:21:43.241Z,2.87
2018-08-16T06:24:12.173Z,2.87
2018-08-16T06:26:41.097Z,2.80
2018-08-16T06:29:10.325Z,2.90
2018-08-16T06:31:39.236Z,3.37
2018-08-16T06:34:08.623Z,3.50
2018-08-16T06:36:37.870Z,3.50
2018-08-16T06:39:09.766Z,3.93
2018-08-16T06:41:39.341Z,4.42
2018-08-16T06:44:08.789Z,3.25
2018-08-16T06:46:38.013Z,3.40
2018-08-16T06:49:08.092Z,3.83
2018-08-16T06:51:37.637Z,3.90
2018-08-16T06:54:06.871Z,3.50
2018-08-16T06:56:36.128Z,3.95
2018-08-16T06:59:05.431Z,4.12
2018-08-16T07:01:34.331Z,4.97
2018-08-16T07:04:03.555Z,5.67
2018-08-16T07:06:32.457Z,5.50
2018-08-16T07:09:01.386Z,5.37
2018-08-16T07:11:30.501Z,6.53
2018-08-16T07:13:59.467Z,6.43
2018-08-16T07:16:28.452Z,4.27
2018-08-16T07:18:57.645Z,3.83
2018-08-16T07:21:26.594Z,3.50
2018-08-16T07:23:55.530Z,2.53
2018-08-16T07:26:24.458Z,2.50
2018-08-16T07:28:53.387Z,2.60
2018-08-16T07:31:22.323Z,2.30
2018-08-16T07:33:51.363Z,2.30
2018-08-16T07:36:20.337Z,1.90
2018-08-16T07:38:49.344Z,2.50
2018-08-16T07:41:18.317Z,2.33
2018-08-16T07:43:47.233Z,2.47
2018-08-16T07:46:16.248Z,2.00
2018-08-16T07:48:45.274Z,2.10
2018-08-16T07:51:14.596Z,2.73
2018-08-16T07:53:43.473Z,2.40
2018-08-16T07:56:13.605Z,2.40
2018-08-16T07:58:42.534Z,2.20
2018-08-16T08:01:11.471Z,2.20
2018-08-16T08:03:40.413Z,1.57
2018-08-16T08:06:09.357Z,1.33
2018-08-16T08:08:38.301Z,2.87
2018-08-16T08:11:07.182Z,1.50
2018-08-16T08:13:36.502Z,1.60
2018-08-16T08:16:05.469Z,1.53
2018-08-16T08:18:34.391Z,1.23
2018-08-16T08:21:03.327Z,1.60
2018-08-16T08:23:32.214Z,1.47
2018-08-16T08:26:01.192Z,1.53
2018-08-16T08:28:30.529Z,1.47
2018-08-16T08:30:59.424Z,1.10
2018-08-16T08:33:28.362Z,1.30
2018-08-16T08:36:08.772Z,1.10
2018-08-16T08:38:37.728Z,4.20
2018-08-16T08:41:06.854Z,4.67
2018-08-16T08:43:47.201Z,5.30
2018-08-16T08:46:16.577Z,6.40
2018-08-16T08:48:45.471Z,1.37
2018-08-16T08:51:14.373Z,1.57
2018-08-16T08:54:53.588Z,1.20
2018-08-16T08:57:34.572Z,0.90
2018-08-16T09:00:03.542Z,1.20
2018-08-16T09:02:32.443Z,1.10
2018-08-16T09:05:01.755Z,1.20
2018-08-16T09:07:30.923Z,1.10
2018-08-16T09:11:18.077Z,1.27
2018-08-16T09:14:00.584Z,1.27
2018-08-16T09:16:32.351Z,1.90
2018-08-16T09:19:02.456Z,2.00
2018-08-16T09:21:36.800Z,1.95
2018-08-16T09:24:06.196Z,1.70
2018-08-16T09:26:43.704Z,1.70
2018-08-16T09:29:37.365Z,1.80
2018-08-16T09:32:17.840Z,1.72
2018-08-16T09:34:47.033Z,1.67
2018-08-16T09:37:20.429Z,1.60
2018-08-16T09:39:49.755Z,1.70
2018-08-16T09:42:19.429Z,1.50
2018-08-16T09:44:53.225Z,1.72
2018-08-16T09:48:34.520Z,1.80
2018-08-16T09:51:03.829Z,1.65
2018-08-16T09:53:33.374Z,2.08
2018-08-16T09:56:02.705Z,1.80
2018-08-16T09:58:32.457Z,1.92
2018-08-16T10:01:06.946Z,2.05
2018-08-16T10:03:36.184Z,1.90
2018-08-16T10:06:06.179Z,2.12
2018-08-16T10:08:35.380Z,1.95
2018-08-16T10:11:04.665Z,1.72
2018-08-16T10:13:33.922Z,1.90
2018-08-16T10:16:03.318Z,1.90
2018-08-16T10:18:32.534Z,1.70
2018-08-16T10:21:02.007Z,2.20
2018-08-16T10:23:31.680Z,1.60
2018-08-16T10:26:00.861Z,1.77
2018-08-16T10:28:30.345Z,1.67
2018-08-16T10:30:59.557Z,1.50
2018-08-16T10:33:28.787Z,2.87
2018-08-16T10:35:58.379Z,3.20
2018-08-16T10:38:27.569Z,4.25
2018-08-16T10:40:56.745Z,5.22
2018-08-16T10:43:26.280Z,4.22
2018-08-16T10:45:55.472Z,3.55
2018-08-16T10:48:25.048Z,2.45
2018-08-16T10:50:54.276Z,2.20
2018-08-16T10:53:24.428Z,2.70
2018-08-16T10:55:53.758Z,3.00
2018-08-16T10:58:23.055Z,2.42
2018-08-16T11:00:52.337Z,3.10
2018-08-16T11:03:22.507Z,2.65
2018-08-16T11:05:51.900Z,3.10
2018-08-16T11:08:21.141Z,3.60
2018-08-16T11:10:50.437Z,2.90
2018-08-16T11:13:19.618Z,2.30
2018-08-16T11:15:48.788Z,2.60
2018-08-16T11:18:18.307Z,3.05
2018-08-16T11:20:47.725Z,3.75
2018-08-16T11:23:17.042Z,3.30
2018-08-16T11:25:46.241Z,4.28
2018-08-16T11:28:15.756Z,4.05
2018-08-16T11:30:44.989Z,2.60
2018-08-16T11:33:14.229Z,2.30
2018-08-16T11:35:43.420Z,2.90
2018-08-16T11:38:12.629Z,3.12
2018-08-16T11:40:41.872Z,3.65
2018-08-16T11:43:11.208Z,2.27
2018-08-16T11:45:40.444Z,3.33
2018-08-16T11:48:09.617Z,3.47
2018-08-16T11:50:38.892Z,3.72
2018-08-16T11:53:08.196Z,2.30
2018-08-16T11:55:37.396Z,2.98
2018-08-16T11:58:07.177Z,2.60
2018-08-16T12:00:36.802Z,2.08
2018-08-16T12:03:06.755Z,3.17
2018-08-16T12:05:36.057Z,2.95
2018-08-16T12:08:05.276Z,2.77
2018-08-16T12:10:34.496Z,3.05
2018-08-16T12:13:03.786Z,2.75
2018-08-16T12:15:33.118Z,3.12
2018-08-16T12:18:02.404Z,3.60
2018-08-16T12:20:31.925Z,3.80
2018-08-16T12:23:01.215Z,3.33
2018-08-16T12:25:33.396Z,3.67
2018-08-16T12:28:02.620Z,3.55
2018-08-16T12:30:32.011Z,4.70
2018-08-16T12:33:01.257Z,4.28
2018-08-16T12:35:30.715Z,4.17
2018-08-16T12:37:59.939Z,3.65
2018-08-16T12:40:29.244Z,3.40
2018-08-16T12:42:58.588Z,4.22
2018-08-16T12:45:27.830Z,5.50
2018-08-16T12:47:57.037Z,5.78
2018-08-16T12:50:26.237Z,3.70
2018-08-16T12:52:55.545Z,3.25
2018-08-16T12:55:24.773Z,5.67
2018-08-16T12:57:54.084Z,5.25
2018-08-16T13:00:23.294Z,4.60
2018-08-16T13:02:52.470Z,4.87
2018-08-16T13:05:21.719Z,3.85
2018-08-16T13:07:51.244Z,3.50
2018-08-16T13:10:21.892Z,3.05
2018-08-16T13:12:53.539Z,3.15
2018-08-16T13:15:22.860Z,5.25
2018-08-16T13:17:52.096Z,2.70
2018-08-16T13:20:21.320Z,2.70
2018-08-16T13:22:50.512Z,2.10
2018-08-16T13:25:20.383Z,2.10
2018-08-16T13:27:49.661Z,3.33
2018-08-16T13:30:18.945Z,2.55
2018-08-16T13:32:48.182Z,2.90
2018-08-16T13:35:17.447Z,2.30
2018-08-16T13:37:46.633Z,2.30
2018-08-16T13:40:15.826Z,7.55
2018-08-16T13:42:45.126Z,2.55
2018-08-16T13:45:14.347Z,4.72
2018-08-16T13:47:43.542Z,2.20
2018-08-16T13:50:12.767Z,2.60
2018-08-16T13:52:42.098Z,3.00
2018-08-16T13:55:12.193Z,4.67
2018-08-16T13:57:41.874Z,2.25
2018-08-16T14:00:11.145Z,2.47
2018-08-16T14:02:40.761Z,2.52
2018-08-16T14:05:10.271Z,3.52
2018-08-16T14:07:39.565Z,2.85
2018-08-16T14:10:09.192Z,2.95
2018-08-16T14:12:38.448Z,2.47
2018-08-16T14:15:08.473Z,1.80
2018-08-16T14:17:37.757Z,1.95
2018-08-16T14:20:07.715Z,2.10
2018-08-16T14:22:36.916Z,1.90
2018-08-16T14:25:06.620Z,2.35
2018-08-16T14:27:35.817Z,1.77
2018-08-16T14:30:06.745Z,2.20
2018-08-16T14:32:36.084Z,4.17
2018-08-16T14:35:05.555Z,2.30
2018-08-16T14:37:34.813Z,2.22
2018-08-16T14:40:04.452Z,2.20
2018-08-16T14:42:33.632Z,1.75
2018-08-16T14:45:03.313Z,1.95
2018-08-16T14:47:33.623Z,2.87
2018-08-16T14:50:02.885Z,1.60
2018-08-16T14:52:32.330Z,2.02
2018-08-16T14:55:01.593Z,1.85
2018-08-16T14:57:31.789Z,2.00
2018-08-16T15:00:01.030Z,1.70
2018-08-16T15:02:30.419Z,1.98
2018-08-16T15:04:59.659Z,2.10
2018-08-16T15:07:28.861Z,1.55
2018-08-16T15:09:58.159Z,1.45
2018-08-16T15:12:27.653Z,1.92
2018-08-16T15:14:57.006Z,1.85
2018-08-16T15:17:26.196Z,1.95
2018-08-16T15:19:55.464Z,1.65
2018-08-16T15:22:24.674Z,1.62
2018-08-16T15:24:53.953Z,2.83
2018-08-16T15:27:23.172Z,2.15
2018-08-16T15:29:52.444Z,2.33
2018-08-16T15:32:21.813Z,2.10
2018-08-16T15:34:51.149Z,2.10
2018-08-16T15:37:20.414Z,2.37
2018-08-16T15:39:49.637Z,2.50
2018-08-16T15:42:18.917Z,2.12
2018-08-16T15:44:48.095Z,2.70
2018-08-16T15:47:17.304Z,2.72
2018-08-16T15:49:46.526Z,1.62
2018-08-16T15:52:15.713Z,1.95
2018-08-16T15:54:44.935Z,1.80
2018-08-16T15:57:14.116Z,2.17
2018-08-16T15:59:43.388Z,2.33
2018-08-16T16:02:12.561Z,2.70
2018-08-16T16:04:41.800Z,2.45
2018-08-16T16:07:11.357Z,2.40
2018-08-16T16:09:40.553Z,2.60
2018-08-16T16:12:09.742Z,2.22
2018-08-16T16:14:38.904Z,2.65
2018-08-16T16:17:08.095Z,2.58
2018-08-16T16:19:37.373Z,2.12
2018-08-16T16:22:06.549Z,2.05
2018-08-16T16:24:35.740Z,2.00
2018-08-16T16:27:05.085Z,2.02
2018-08-16T16:29:34.251Z,1.87
2018-08-16T16:32:03.751Z,2.33
2018-08-16T16:34:32.945Z,2.35
2018-08-16T16:37:02.209Z,2.15
2018-08-16T16:39:31.719Z,2.37
2018-08-16T16:42:01.265Z,3.27
2018-08-16T16:44:30.821Z,2.85
2018-08-16T16:47:00.276Z,3.05
2018-08-16T16:49:30.101Z,2.00
2018-08-16T16:51:59.601Z,1.92
2018-08-16T16:54:29.216Z,1.77
2018-08-16T16:56:58.884Z,1.70
2018-08-16T16:59:28.547Z,1.72
2018-08-16T17:01:58.128Z,1.60
2018-08-16T17:04:27.329Z,2.05
2018-08-16T17:06:57.250Z,2.70
2018-08-16T17:09:26.468Z,2.20
2018-08-16T17:11:55.643Z,2.00
2018-08-16T17:14:24.839Z,2.17
2018-08-16T17:16:54.180Z,2.08
2018-08-16T17:19:23.348Z,2.00
2018-08-16T17:21:52.568Z,2.00
2018-08-16T17:24:21.748Z,2.12
2018-08-16T17:26:50.955Z,2.25
2018-08-16T17:29:20.126Z,4.37
2018-08-16T17:31:49.324Z,4.00
2018-08-16T17:34:20.638Z,4.47
2018-08-16T17:36:49.870Z,5.65
2018-08-16T17:39:19.256Z,4.60
2018-08-16T17:41:48.425Z,4.80
2018-08-16T17:44:17.616Z,4.50
2018-08-16T17:46:46.902Z,3.90
2018-08-16T17:49:16.453Z,3.62
2018-08-16T17:51:46.004Z,3.60
2018-08-16T17:54:15.168Z,3.72
2018-08-16T17:56:44.715Z,3.60
2018-08-16T17:59:13.952Z,3.20
2018-08-16T18:01:43.557Z,3.05
2018-08-16T18:04:12.920Z,3.37
2018-08-16T18:06:48.519Z,6.30
2018-08-16T18:09:17.734Z,12.88
2018-08-16T18:11:47.252Z,12.40
2018-08-16T18:14:16.464Z,11.80
2018-08-16T18:16:45.680Z,16.80
2018-08-16T18:19:14.917Z,27.02
2018-08-16T18:21:44.448Z,24.57
2018-08-16T18:24:13.791Z,19.85
2018-08-16T18:26:43.217Z,16.73
2018-08-16T18:29:12.540Z,17.02
2018-08-16T18:31:41.793Z,14.05
2018-08-16T18:34:10.990Z,23.35
2018-08-16T18:36:40.287Z,15.60
2018-08-16T18:39:10.964Z,14.28
2018-08-16T18:41:40.437Z,13.13
2018-08-16T18:44:09.712Z,12.75
2018-08-16T18:46:39.044Z,15.75
2018-08-16T18:49:08.316Z,17.60
2018-08-16T18:51:36.910Z,13.05
2018-08-16T18:54:06.149Z,17.20
2018-08-16T18:56:34.753Z,14.33
2018-08-16T18:59:04.060Z,26.97
2018-08-16T19:01:33.128Z,18.07
2018-08-16T19:04:02.386Z,15.93
2018-08-16T19:06:32.024Z,19.20
2018-08-16T19:09:01.206Z,23.55
2018-08-16T19:11:30.412Z,22.67
2018-08-16T19:13:59.156Z,28.13
2018-08-16T19:16:27.824Z,39.67
2018-08-16T19:18:57.529Z,38.63
2018-08-16T19:21:26.128Z,17.30
2018-08-16T19:23:54.774Z,19.37
2018-08-16T19:26:23.485Z,25.23
2018-08-16T19:28:52.101Z,23.27
2018-08-16T19:31:20.981Z,17.03
2018-08-16T19:33:49.616Z,17.43
2018-08-16T19:36:18.228Z,13.03
2018-08-16T19:38:46.943Z,16.90
2018-08-16T19:41:15.584Z,24.40
2018-08-16T19:43:44.489Z,22.47
2018-08-16T19:46:13.157Z,27.43
2018-08-16T19:48:41.780Z,18.77
2018-08-16T19:51:10.500Z,31.60
2018-08-16T19:53:39.102Z,23.60
2018-08-16T19:56:07.720Z,16.13
2018-08-16T19:58:37.197Z,21.90
2018-08-16T20:01:06.157Z,21.30
2018-08-16T20:03:34.958Z,22.57
2018-08-16T20:06:03.801Z,25.60
2018-08-16T20:08:32.639Z,31.43
2018-08-16T20:11:01.278Z,30.17
2018-08-16T20:13:30.174Z,30.67
2018-08-16T20:15:58.818Z,33.57
2018-08-16T20:18:27.428Z,29.37
2018-08-16T20:20:56.060Z,39.60
2018-08-16T20:23:24.671Z,25.17
2018-08-16T20:25:53.353Z,28.60
2018-08-16T20:28:22.029Z,24.13
2018-08-16T20:30:50.681Z,13.00
2018-08-16T20:33:19.440Z,22.33
2018-08-16T20:35:48.064Z,16.03
2018-08-16T20:38:16.741Z,17.00
2018-08-16T20:40:45.417Z,28.90
2018-08-16T20:43:14.032Z,25.63
2018-08-16T20:45:42.788Z,27.73
2018-08-16T20:48:11.398Z,34.33
2018-08-16T20:50:40.025Z,31.17
2018-08-16T20:53:09.335Z,26.02
2018-08-16T20:55:38.533Z,24.70
2018-08-16T20:58:07.794Z,32.60
2018-08-16T21:00:37.107Z,40.98
2018-08-16T21:03:06.533Z,33.73
2018-08-16T21:05:35.769Z,36.05
2018-08-16T21:08:04.416Z,34.20
2018-08-16T21:10:33.118Z,27.43
2018-08-16T21:13:01.717Z,24.60
2018-08-16T21:15:30.964Z,27.80
2018-08-16T21:18:00.169Z,28.70
2018-08-16T21:20:28.907Z,29.17
2018-08-16T21:22:58.628Z,26.23
2018-08-16T21:25:27.284Z,27.00
2018-08-16T21:27:55.905Z,27.43
2018-08-16T21:30:25.170Z,25.82
2018-08-16T21:32:54.532Z,28.38
2018-08-16T21:35:23.239Z,21.67
2018-08-16T21:37:51.914Z,21.60
2018-08-16T21:40:21.836Z,30.60
2018-08-16T21:42:50.600Z,22.43
2018-08-16T21:45:19.204Z,22.53
2018-08-16T21:47:47.862Z,23.53
2018-08-16T21:50:16.476Z,24.07
2018-08-16T21:52:45.111Z,23.73
2018-08-16T21:55:13.798Z,18.80
2018-08-16T21:57:42.431Z,34.90
2018-08-16T22:00:11.749Z,35.40
2018-08-16T22:02:40.948Z,40.00
2018-08-16T22:05:09.592Z,39.73
2018-08-16T22:08:14.277Z,43.70
2018-08-16T22:10:44.097Z,38.83
2018-08-16T22:13:12.760Z,40.43
2018-08-16T22:15:41.628Z,56.07
2018-08-16T22:18:10.561Z,40.43
2018-08-16T22:20:39.322Z,28.83
2018-08-16T22:23:07.960Z,27.03
2018-08-16T22:25:36.668Z,29.90
2018-08-16T22:28:05.413Z,27.83
2018-08-16T22:30:34.036Z,24.70
2018-08-16T22:33:02.653Z,18.40
2018-08-16T22:35:31.461Z,19.30
2018-08-16T22:38:00.122Z,18.10
2018-08-16T22:40:28.796Z,16.90
2018-08-16T22:42:57.404Z,14.33
2018-08-16T22:45:26.087Z,11.93
2018-08-16T22:47:54.895Z,18.63
2018-08-16T22:50:23.544Z,12.70
2018-08-16T22:52:52.702Z,29.27
2018-08-16T22:55:21.446Z,25.83
2018-08-16T22:57:50.087Z,27.93
2018-08-16T23:00:18.761Z,36.70
2018-08-16T23:02:47.424Z,40.67
2018-08-16T23:05:16.156Z,34.87
2018-08-16T23:07:44.892Z,27.47
2018-08-16T23:10:13.873Z,21.73
2018-08-16T23:12:42.509Z,25.83
2018-08-16T23:15:11.192Z,22.27
2018-08-16T23:17:39.861Z,13.97
2018-08-16T23:20:09.272Z,15.23
2018-08-16T23:22:38.007Z,24.80
2018-08-16T23:25:08.220Z,11.07
2018-08-16T23:27:36.905Z,11.27
2018-08-16T23:30:09.813Z,14.93
2018-08-16T23:32:38.464Z,13.10
2018-08-16T23:35:07.571Z,19.03
2018-08-16T23:37:36.349Z,19.80
2018-08-16T23:40:06.620Z,12.37
2018-08-16T23:42:35.302Z,11.80
2018-08-16T23:45:04.002Z,12.57
2018-08-16T23:47:32.973Z,18.73
2018-08-16T23:50:01.668Z,13.83
2018-08-16T23:52:30.653Z,11.93
2018-08-16T23:54:59.280Z,16.43
2018-08-16T23:57:27.905Z,28.13
2018-08-16T23:59:56.526Z,37.27
